Time;durP1;ratioP1;P1;durP2;ratioP2;P2;SDS_P1;SDS_P2;PMS_P1;PMS_P2;Temp;Humidity;BMP_temperature;BMP_pressure;BME280_temperature;BME280_humidity;BME280_pressure;Samples;Min_cycle;Max_cycle;Signal;HPM_P1;HPM_P2
2021/10/31 00:02:17;;;;;;;7.10;3.80;;;12.50;99.90;;;;;;5033716;28;20513;-79
2021/10/31 00:04:43;;;;;;;4.80;2.83;;;12.50;99.90;;;;;;5035012;28;20215;-80
2021/10/31 00:07:09;;;;;;;8.93;4.20;;;12.50;99.90;;;;;;5036291;28;20886;-80
2021/10/31 00:09:35;;;;;;;12.70;4.37;;;12.50;99.90;;;;;;5035539;28;20462;-80
2021/10/31 00:12:01;;;;;;;9.33;2.97;;;12.50;99.90;;;;;;5035419;28;20423;-80
2021/10/31 00:14:27;;;;;;;4.93;3.93;;;12.50;99.90;;;;;;5035184;28;20427;-80
2021/10/31 00:16:58;;;;;;;4.30;2.90;;;12.50;99.90;;;;;;5035039;28;20581;-80
2021/10/31 00:19:28;;;;;;;6.20;3.40;;;12.40;99.90;;;;;;5034902;28;20592;-80
2021/10/31 00:21:54;;;;;;;4.83;3.30;;;12.40;99.90;;;;;;5034762;28;20430;-80
2021/10/31 00:24:20;;;;;;;4.60;3.07;;;12.40;99.90;;;;;;5034299;28;20837;-80
2021/10/31 00:26:46;;;;;;;6.87;5.10;;;12.30;99.90;;;;;;5035155;28;20423;-80
2021/10/31 00:29:12;;;;;;;5.60;3.80;;;12.30;99.90;;;;;;5034742;28;20419;-80
2021/10/31 00:31:38;;;;;;;5.33;3.60;;;12.30;99.90;;;;;;5034309;28;20427;-80
2021/10/31 00:34:03;;;;;;;6.07;3.47;;;12.30;99.90;;;;;;5034732;28;20187;-80
2021/10/31 00:36:29;;;;;;;5.67;3.30;;;12.30;99.90;;;;;;5034068;28;20200;-79
2021/10/31 00:38:56;;;;;;;7.40;3.53;;;12.30;99.90;;;;;;5034343;28;20181;-80
2021/10/31 00:41:22;;;;;;;5.20;3.43;;;12.20;99.90;;;;;;5033805;28;20478;-80
2021/10/31 00:43:51;;;;;;;6.40;3.80;;;12.20;99.90;;;;;;5033563;28;20419;-80
2021/10/31 00:46:16;;;;;;;4.60;3.27;;;12.20;99.90;;;;;;5033845;28;20474;-81
2021/10/31 00:48:42;;;;;;;5.60;3.60;;;12.10;99.90;;;;;;5033766;28;20426;-79
2021/10/31 00:51:08;;;;;;;6.80;3.80;;;12.00;99.90;;;;;;5033636;28;20195;-80
2021/10/31 00:53:39;;;;;;;5.50;3.60;;;12.00;99.90;;;;;;5033520;28;20556;-81
2021/10/31 00:56:05;;;;;;;4.80;3.73;;;12.00;99.90;;;;;;5033284;28;20447;-79
2021/10/31 00:58:31;;;;;;;4.97;2.87;;;12.00;99.90;;;;;;5033371;28;20929;-79
2021/10/31 01:00:57;;;;;;;7.43;3.33;;;12.00;99.90;;;;;;5033151;28;20520;-80
2021/10/31 01:03:30;;;;;;;5.07;3.63;;;12.00;99.90;;;;;;5033043;28;20651;-80
2021/10/31 01:06:12;;;;;;;6.77;3.57;;;12.00;99.90;;;;;;5032005;28;20204;-80
2021/10/31 01:09:02;;;;;;;6.00;3.80;;;12.00;99.90;;;;;;5033484;28;20425;-79
2021/10/31 01:11:37;;;;;;;4.63;3.30;;;12.00;99.90;;;;;;5033086;28;20790;-79
2021/10/31 01:14:31;;;;;;;5.33;3.23;;;12.00;99.90;;;;;;5032735;28;20422;-81
2021/10/31 01:17:09;;;;;;;6.53;3.80;;;12.00;99.90;;;;;;5051646;23;20483;-87
2021/10/31 01:20:06;;;;;;;5.90;3.70;;;12.10;99.90;;;;;;5032899;28;20490;-86
2021/10/31 01:22:57;;;;;;;6.53;3.50;;;12.10;99.90;;;;;;5031572;28;20458;-86
2021/10/31 01:25:39;;;;;;;5.77;4.23;;;12.10;99.90;;;;;;5031164;28;20826;-85
2021/10/31 01:28:13;;;;;;;5.23;3.00;;;12.10;99.90;;;;;;5031428;28;20942;-86
2021/10/31 01:31:08;;;;;;;6.10;3.80;;;12.10;99.90;;;;;;5031789;28;20415;-83
2021/10/31 01:33:55;;;;;;;4.90;3.40;;;12.10;99.90;;;;;;5032326;28;20423;-86
2021/10/31 01:36:27;;;;;;;5.83;3.53;;;12.10;99.90;;;;;;5031510;28;20411;-85
2021/10/31 01:39:11;;;;;;;5.40;3.50;;;12.10;99.90;;;;;;5031212;28;20461;-85
2021/10/31 01:42:07;;;;;;;5.60;3.40;;;12.10;99.90;;;;;;5031094;28;20427;-85
2021/10/31 01:45:04;;;;;;;5.43;3.50;;;12.00;99.90;;;;;;5031044;28;20428;-85
2021/10/31 01:47:35;;;;;;;4.17;2.87;;;12.00;99.90;;;;;;5031457;28;20490;-85
2021/10/31 01:50:39;;;;;;;3.90;2.50;;;12.00;99.90;;;;;;5031077;28;20411;-85
2021/10/31 01:53:28;;;;;;;5.20;3.40;;;12.00;99.90;;;;;;5030664;28;20772;-85
2021/10/31 01:56:16;;;;;;;5.73;3.67;;;12.00;99.90;;;;;;5031850;28;20920;-84
2021/10/31 01:58:46;;;;;;;5.20;2.67;;;12.00;99.90;;;;;;5032147;28;20485;-85
2021/10/31 02:01:15;;;;;;;4.50;3.13;;;12.00;99.90;;;;;;5032171;28;20570;-85
2021/10/31 02:03:42;;;;;;;5.60;2.90;;;12.00;99.90;;;;;;5031925;28;20424;-84
2021/10/31 02:06:10;;;;;;;5.77;3.37;;;11.90;99.90;;;;;;5030998;28;20450;-85
2021/10/31 02:08:38;;;;;;;6.20;2.87;;;11.90;99.90;;;;;;5030711;28;20447;-85
2021/10/31 02:11:06;;;;;;;4.07;3.13;;;11.90;99.90;;;;;;5030938;28;20419;-86
2021/10/31 02:13:32;;;;;;;5.40;2.70;;;11.90;99.90;;;;;;5030545;28;20438;-86
2021/10/31 02:15:59;;;;;;;5.37;3.33;;;11.90;99.90;;;;;;5031217;28;20502;-85
2021/10/31 02:18:27;;;;;;;4.30;2.63;;;11.90;99.90;;;;;;5030754;28;20463;-85
2021/10/31 02:20:57;;;;;;;3.70;2.47;;;11.90;99.90;;;;;;5030977;28;20562;-85
2021/10/31 02:23:24;;;;;;;4.80;3.30;;;11.80;99.90;;;;;;5030484;28;20422;-85
2021/10/31 02:25:50;;;;;;;5.60;3.30;;;11.80;99.90;;;;;;5030838;28;20946;-85
2021/10/31 02:28:15;;;;;;;7.20;3.27;;;11.70;99.90;;;;;;5031953;28;20431;-85
2021/10/31 02:30:41;;;;;;;8.03;3.37;;;11.70;99.90;;;;;;5030930;28;20803;-85
2021/10/31 02:33:07;;;;;;;4.37;3.20;;;11.60;99.90;;;;;;5031929;28;20176;-86
2021/10/31 02:35:33;;;;;;;7.23;3.27;;;11.60;99.90;;;;;;5030776;28;20883;-86
2021/10/31 02:37:59;;;;;;;6.00;3.73;;;11.60;99.90;;;;;;5031848;28;20208;-86
2021/10/31 02:40:24;;;;;;;5.73;3.47;;;11.60;99.90;;;;;;5036006;28;20980;-85
2021/10/31 02:42:51;;;;;;;4.73;3.20;;;11.50;99.90;;;;;;5034503;28;20188;-85
2021/10/31 02:45:17;;;;;;;5.10;3.37;;;11.50;99.90;;;;;;5034531;28;20559;-85
2021/10/31 02:47:48;;;;;;;4.17;2.80;;;11.50;99.90;;;;;;5035953;28;20443;-85
2021/10/31 02:50:22;;;;;;;5.00;3.77;;;11.50;99.90;;;;;;5034501;28;20422;-85
2021/10/31 02:53:08;;;;;;;4.80;3.17;;;11.50;99.90;;;;;;5034134;28;20441;-86
2021/10/31 02:55:36;;;;;;;5.30;3.50;;;11.40;99.90;;;;;;5035828;28;20779;-85
2021/10/31 02:58:25;;;;;;;5.40;2.93;;;11.40;99.90;;;;;;5034446;28;20451;-85
2021/10/31 03:00:56;;;;;;;7.30;3.70;;;11.40;99.90;;;;;;5023635;28;20497;-85
2021/10/31 03:03:21;;;;;;;4.53;2.80;;;11.40;99.90;;;;;;5034214;28;20407;-85
2021/10/31 03:05:53;;;;;;;4.03;3.00;;;11.40;99.90;;;;;;5035479;28;20422;-85
2021/10/31 03:08:20;;;;;;;4.33;3.07;;;11.40;99.90;;;;;;5035468;28;20192;-85
2021/10/31 03:10:57;;;;;;;5.57;2.70;;;11.30;99.90;;;;;;5034152;28;20426;-85
2021/10/31 03:13:25;;;;;;;5.40;2.83;;;11.30;99.90;;;;;;5035149;28;20789;-86
2021/10/31 03:15:50;;;;;;;4.30;3.00;;;11.30;99.90;;;;;;5035354;28;20418;-85
2021/10/31 03:18:16;;;;;;;7.80;3.27;;;11.20;99.90;;;;;;5035162;28;20817;-85
2021/10/31 03:20:42;;;;;;;4.80;2.80;;;11.20;99.90;;;;;;5033883;28;20209;-86
2021/10/31 03:23:08;;;;;;;5.60;3.23;;;11.20;99.90;;;;;;5034812;28;20179;-85
2021/10/31 03:25:33;;;;;;;6.20;3.00;;;11.10;99.90;;;;;;5033884;28;20172;-85
2021/10/31 03:27:59;;;;;;;7.30;3.40;;;11.10;99.90;;;;;;5033903;28;20454;-85
2021/10/31 03:30:25;;;;;;;4.10;3.37;;;11.00;99.90;;;;;;5033739;28;20187;-85
2021/10/31 03:32:50;;;;;;;5.33;2.87;;;11.00;99.90;;;;;;5034886;28;20181;-85
2021/10/31 03:35:16;;;;;;;4.50;3.20;;;11.00;99.90;;;;;;5033619;28;20176;-85
2021/10/31 03:37:44;;;;;;;4.17;3.27;;;11.00;99.90;;;;;;5034882;28;20219;-85
2021/10/31 03:40:10;;;;;;;4.50;3.20;;;11.00;99.90;;;;;;5033554;28;20220;-85
2021/10/31 03:42:37;;;;;;;4.70;3.53;;;11.00;99.90;;;;;;5033437;28;20449;-85
2021/10/31 03:45:05;;;;;;;5.43;3.53;;;11.00;99.90;;;;;;5033548;28;20426;-85
2021/10/31 03:47:33;;;;;;;4.70;3.83;;;11.00;99.90;;;;;;5033484;28;20509;-85
2021/10/31 03:49:59;;;;;;;5.67;3.63;;;11.00;99.90;;;;;;5033014;28;20549;-85
2021/10/31 03:52:24;;;;;;;10.43;4.57;;;11.00;99.90;;;;;;5033414;28;20426;-86
2021/10/31 03:54:50;;;;;;;6.23;4.30;;;11.10;99.90;;;;;;5036932;28;20177;-87
2021/10/31 03:57:16;;;;;;;7.10;4.13;;;11.00;99.90;;;;;;5035554;28;20601;-86
2021/10/31 03:59:41;;;;;;;6.67;4.73;;;11.10;99.90;;;;;;5035576;28;20204;-86
2021/10/31 04:02:07;;;;;;;5.10;3.90;;;11.00;99.90;;;;;;5035187;28;20177;-86
2021/10/31 04:04:33;;;;;;;5.50;4.57;;;11.00;99.90;;;;;;5035004;28;20180;-86
2021/10/31 04:06:58;;;;;;;5.43;3.77;;;11.00;99.90;;;;;;5036109;28;20279;-86
2021/10/31 04:09:24;;;;;;;7.20;4.80;;;11.00;99.90;;;;;;5035469;28;20374;-85
2021/10/31 04:11:50;;;;;;;5.97;4.40;;;11.00;99.90;;;;;;5035146;28;20237;-86
2021/10/31 04:14:15;;;;;;;5.80;4.10;;;11.00;99.90;;;;;;5034894;28;20176;-86
2021/10/31 04:16:41;;;;;;;5.50;3.93;;;11.00;99.90;;;;;;5034811;28;20184;-86
2021/10/31 04:19:07;;;;;;;8.60;4.67;;;11.00;99.90;;;;;;5034894;28;20199;-86
2021/10/31 04:21:32;;;;;;;6.30;4.37;;;11.00;99.90;;;;;;5034486;28;20734;-87
2021/10/31 04:23:58;;;;;;;7.50;5.03;;;11.10;99.90;;;;;;5034820;28;20184;-86
2021/10/31 04:26:23;;;;;;;7.30;4.23;;;11.10;99.90;;;;;;5036126;28;20176;-86
2021/10/31 04:28:49;;;;;;;6.13;4.90;;;11.00;99.90;;;;;;5036048;28;20193;-86
2021/10/31 04:31:15;;;;;;;8.73;4.83;;;11.00;99.90;;;;;;5034169;28;20188;-86
2021/10/31 04:33:40;;;;;;;7.67;5.00;;;11.00;99.90;;;;;;5034177;28;20184;-86
2021/10/31 04:36:07;;;;;;;7.80;5.93;;;11.00;99.90;;;;;;5034565;28;20238;-86
2021/10/31 04:38:33;;;;;;;7.00;4.67;;;11.00;99.90;;;;;;5034320;28;20505;-86
2021/10/31 04:40:59;;;;;;;6.43;4.80;;;11.00;99.90;;;;;;5034109;28;20454;-86
2021/10/31 04:43:26;;;;;;;6.50;4.27;;;11.00;99.90;;;;;;5035104;28;20419;-85
2021/10/31 04:45:53;;;;;;;6.37;4.20;;;11.00;99.90;;;;;;5033951;28;20854;-86
2021/10/31 04:48:21;;;;;;;7.20;4.33;;;11.00;99.90;;;;;;5033891;28;20503;-85
2021/10/31 04:50:47;;;;;;;6.20;4.50;;;11.00;99.90;;;;;;5035225;28;20419;-86
2021/10/31 04:53:13;;;;;;;8.07;4.50;;;11.00;99.90;;;;;;5033607;28;20815;-86
2021/10/31 04:55:40;;;;;;;7.10;4.50;;;11.00;99.90;;;;;;5035100;28;20423;-87
2021/10/31 04:58:07;;;;;;;6.97;4.50;;;11.00;99.90;;;;;;5033244;28;20457;-86
2021/10/31 05:00:33;;;;;;;6.83;4.93;;;11.00;99.90;;;;;;5032682;28;20996;-86
2021/10/31 05:02:59;;;;;;;7.53;4.90;;;11.00;99.90;;;;;;5034531;28;20442;-87
2021/10/31 05:05:24;;;;;;;8.17;6.57;;;11.00;99.90;;;;;;5033304;28;20227;-85
2021/10/31 05:07:54;;;;;;;6.10;5.17;;;10.90;99.90;;;;;;5033289;28;20212;-85
2021/10/31 05:10:24;;;;;;;7.67;5.53;;;10.90;99.90;;;;;;5033022;28;20631;-86
2021/10/31 05:12:50;;;;;;;8.60;6.00;;;10.80;99.90;;;;;;5032869;28;20458;-86
2021/10/31 05:15:16;;;;;;;8.27;5.73;;;10.80;99.90;;;;;;5032853;28;20459;-86
2021/10/31 05:17:41;;;;;;;7.87;5.93;;;10.80;99.90;;;;;;5032722;28;20228;-86
2021/10/31 05:20:09;;;;;;;9.03;6.63;;;10.80;99.90;;;;;;5032474;28;20204;-85
2021/10/31 05:22:35;;;;;;;12.30;7.13;;;10.70;99.90;;;;;;5034013;28;20210;-86
2021/10/31 05:25:02;;;;;;;9.70;7.60;;;10.70;99.90;;;;;;5032712;28;20426;-85
2021/10/31 05:27:27;;;;;;;9.83;7.03;;;10.70;99.90;;;;;;5032462;28;20850;-86
2021/10/31 05:29:53;;;;;;;9.30;6.50;;;10.70;99.90;;;;;;5032729;28;20545;-86
2021/10/31 05:32:18;;;;;;;9.83;5.80;;;10.80;99.90;;;;;;5033947;28;20183;-86
2021/10/31 05:34:44;;;;;;;9.20;6.50;;;10.70;99.90;;;;;;5033718;28;20306;-85
2021/10/31 05:37:10;;;;;;;9.80;6.90;;;10.70;99.90;;;;;;5032337;28;20684;-86
2021/10/31 05:39:35;;;;;;;9.10;6.40;;;10.70;99.90;;;;;;5032360;28;20195;-86
2021/10/31 05:42:01;;;;;;;12.00;6.87;;;10.70;99.90;;;;;;5032216;28;20191;-87
2021/10/31 05:44:27;;;;;;;8.57;6.40;;;10.70;99.90;;;;;;5032500;28;20548;-85
2021/10/31 05:46:52;;;;;;;9.30;6.80;;;10.70;99.90;;;;;;5032269;28;20193;-85
2021/10/31 05:49:18;;;;;;;8.40;6.10;;;10.70;99.90;;;;;;5032186;28;20172;-85
2021/10/31 05:51:43;;;;;;;9.67;6.67;;;10.70;99.90;;;;;;5031932;28;20713;-86
2021/10/31 05:54:09;;;;;;;9.00;6.83;;;10.70;99.90;;;;;;5033148;28;20180;-85
2021/10/31 05:56:35;;;;;;;8.53;6.77;;;10.60;99.90;;;;;;5031225;28;20180;-84
2021/10/31 05:59:01;;;;;;;8.50;6.40;;;10.60;99.90;;;;;;5032322;28;20422;-85
2021/10/31 06:01:26;;;;;;;9.70;7.27;;;10.60;99.90;;;;;;5032390;28;20200;-85
2021/10/31 06:03:52;;;;;;;9.37;6.77;;;10.50;99.90;;;;;;5032126;28;20180;-85
2021/10/31 06:06:22;;;;;;;9.37;6.80;;;10.50;99.90;;;;;;5031208;28;20172;-85
2021/10/31 06:08:49;;;;;;;8.77;6.10;;;10.50;99.90;;;;;;5030949;28;20192;-85
2021/10/31 06:11:15;;;;;;;10.10;6.30;;;10.50;99.90;;;;;;5040252;28;20415;-85
2021/10/31 06:13:41;;;;;;;9.87;6.20;;;10.50;99.90;;;;;;5033641;28;20459;-87
2021/10/31 06:16:07;;;;;;;8.90;7.00;;;10.50;99.90;;;;;;5033998;28;20427;-86
2021/10/31 06:18:34;;;;;;;8.53;7.20;;;10.50;99.90;;;;;;5032130;28;20306;-87
2021/10/31 06:21:01;;;;;;;7.53;5.80;;;10.50;99.90;;;;;;5032169;28;20520;-86
2021/10/31 06:23:27;;;;;;;8.53;6.80;;;10.50;99.90;;;;;;5033298;28;20438;-86
2021/10/31 06:25:52;;;;;;;8.77;5.90;;;10.50;99.90;;;;;;5032609;28;20408;-86
2021/10/31 06:28:18;;;;;;;7.93;6.10;;;10.50;99.90;;;;;;5032268;28;20227;-86
2021/10/31 06:30:44;;;;;;;9.00;5.60;;;10.50;99.90;;;;;;5033040;28;20648;-86
2021/10/31 06:33:09;;;;;;;7.60;5.63;;;10.40;99.90;;;;;;5032768;28;20188;-85
2021/10/31 06:35:35;;;;;;;7.27;5.20;;;10.40;99.90;;;;;;5031800;28;20188;-85
2021/10/31 06:38:01;;;;;;;7.37;5.23;;;10.40;99.90;;;;;;5031824;28;20216;-86
2021/10/31 06:40:27;;;;;;;7.50;5.20;;;10.40;99.90;;;;;;5031754;28;20235;-86
2021/10/31 06:42:53;;;;;;;8.50;6.00;;;10.30;99.90;;;;;;5031102;28;20420;-86
2021/10/31 06:45:20;;;;;;;9.30;5.80;;;10.30;99.90;;;;;;5031007;28;20414;-85
2021/10/31 06:47:46;;;;;;;9.30;7.03;;;10.30;99.90;;;;;;5031744;28;20431;-85
2021/10/31 06:50:12;;;;;;;7.90;5.30;;;10.30;99.90;;;;;;5030725;28;20866;-85
2021/10/31 06:52:37;;;;;;;9.47;5.67;;;10.30;99.90;;;;;;5031453;28;20502;-85
2021/10/31 06:55:06;;;;;;;9.43;5.03;;;10.40;99.90;;;;;;5030510;28;20513;-85
2021/10/31 06:57:32;;;;;;;7.63;5.50;;;10.40;99.90;;;;;;5030191;28;20277;-85
2021/10/31 06:59:57;;;;;;;6.93;4.90;;;10.50;99.90;;;;;;5030566;28;20502;-85
2021/10/31 07:02:23;;;;;;;5.60;4.43;;;10.50;99.90;;;;;;5030207;28;20187;-85
2021/10/31 07:04:49;;;;;;;5.23;4.57;;;10.60;99.90;;;;;;5030392;28;20172;-84
2021/10/31 07:07:15;;;;;;;7.30;4.63;;;10.70;99.90;;;;;;5031542;28;20193;-85
2021/10/31 07:09:42;;;;;;;5.87;4.20;;;10.70;99.90;;;;;;5030390;28;20208;-84
2021/10/31 07:12:07;;;;;;;6.73;4.83;;;10.70;99.90;;;;;;5031219;28;20906;-84
2021/10/31 07:14:33;;;;;;;6.50;4.30;;;10.80;99.90;;;;;;5030152;28;20415;-84
2021/10/31 07:16:59;;;;;;;6.70;5.03;;;10.80;99.90;;;;;;5030024;28;20577;-84
2021/10/31 07:19:25;;;;;;;7.10;5.60;;;10.80;99.90;;;;;;5067549;23;20266;-88
2021/10/31 07:21:51;;;;;;;5.60;4.23;;;10.90;99.90;;;;;;5031267;28;20443;-88
2021/10/31 07:24:17;;;;;;;7.43;4.60;;;10.90;99.90;;;;;;5031908;28;20184;-88
2021/10/31 07:26:42;;;;;;;8.17;4.87;;;11.00;99.90;;;;;;5034967;28;20180;-85
2021/10/31 07:29:08;;;;;;;6.97;4.40;;;11.00;99.90;;;;;;5036054;28;20682;-88
2021/10/31 07:31:36;;;;;;;7.10;4.97;;;11.00;99.90;;;;;;5035370;28;20183;-86
2021/10/31 07:34:03;;;;;;;6.57;4.77;;;11.10;99.90;;;;;;5034408;28;20534;-88
2021/10/31 07:36:29;;;;;;;6.70;5.10;;;11.10;99.90;;;;;;5034493;28;20419;-86
2021/10/31 07:38:56;;;;;;;9.70;5.17;;;11.20;99.90;;;;;;5034099;28;20987;-86
2021/10/31 07:41:22;;;;;;;6.07;4.30;;;11.20;99.90;;;;;;5034180;28;20258;-86
2021/10/31 07:43:48;;;;;;;6.17;4.50;;;11.20;99.90;;;;;;5033886;28;20419;-87
2021/10/31 07:46:13;;;;;;;6.77;4.30;;;11.30;99.90;;;;;;5034746;28;20180;-85
2021/10/31 07:48:39;;;;;;;5.63;4.20;;;11.30;99.90;;;;;;5035150;28;20754;-86
2021/10/31 07:51:05;;;;;;;5.80;4.20;;;11.30;99.90;;;;;;5034800;28;20188;-86
2021/10/31 07:53:30;;;;;;;4.90;3.93;;;11.30;99.90;;;;;;5034088;28;20181;-87
2021/10/31 07:55:56;;;;;;;6.57;4.40;;;11.30;99.90;;;;;;5034450;28;20180;-86
2021/10/31 07:58:24;;;;;;;6.70;4.13;;;11.30;99.90;;;;;;5034215;28;20189;-87
2021/10/31 08:00:51;;;;;;;8.40;4.90;;;11.30;99.90;;;;;;5033716;28;20467;-86
2021/10/31 08:03:18;;;;;;;8.20;4.90;;;11.30;99.90;;;;;;5033723;28;20937;-88
2021/10/31 08:05:44;;;;;;;5.27;3.90;;;11.40;99.90;;;;;;5035185;28;20773;-85
2021/10/31 08:08:10;;;;;;;6.27;4.07;;;11.40;99.90;;;;;;5033842;28;20434;-86
2021/10/31 08:10:36;;;;;;;7.10;4.70;;;11.40;99.90;;;;;;5033730;28;20436;-88
2021/10/31 08:13:02;;;;;;;7.53;4.77;;;11.50;99.90;;;;;;5033268;28;20957;-85
2021/10/31 08:15:28;;;;;;;7.17;5.10;;;11.40;99.90;;;;;;5033939;28;20631;-88
2021/10/31 08:17:53;;;;;;;7.87;5.23;;;11.50;99.90;;;;;;5035368;28;20415;-87
2021/10/31 08:20:19;;;;;;;8.00;5.50;;;11.60;99.90;;;;;;5034147;28;20478;-87
2021/10/31 08:22:45;;;;;;;6.93;5.10;;;11.60;99.90;;;;;;5035238;28;20219;-86
2021/10/31 08:25:11;;;;;;;8.03;5.60;;;11.70;99.90;;;;;;5034277;28;20695;-87
2021/10/31 08:27:37;;;;;;;5.90;4.23;;;11.70;99.90;;;;;;5035414;28;20464;-86
2021/10/31 08:30:04;;;;;;;6.37;4.57;;;11.80;99.90;;;;;;5033905;28;20451;-86
2021/10/31 08:32:37;;;;;;;7.17;5.17;;;11.80;99.90;;;;;;5033565;28;20184;-85
2021/10/31 08:35:03;;;;;;;8.03;5.27;;;11.90;99.90;;;;;;5032915;28;20427;-87
2021/10/31 08:37:28;;;;;;;7.57;4.90;;;12.00;99.90;;;;;;5034629;28;20515;-87
2021/10/31 08:39:54;;;;;;;7.00;4.20;;;12.20;99.90;;;;;;5033942;28;20212;-88
2021/10/31 08:42:19;;;;;;;7.30;4.90;;;12.40;99.90;;;;;;5033490;28;20199;-88
2021/10/31 08:44:45;;;;;;;8.07;4.40;;;12.50;99.90;;;;;;5035506;28;20173;-87
2021/10/31 08:47:11;;;;;;;4.73;3.80;;;12.70;99.90;;;;;;5033429;28;20279;-86
2021/10/31 08:49:36;;;;;;;4.80;3.80;;;12.90;99.90;;;;;;5033196;28;20197;-87
2021/10/31 08:52:07;;;;;;;4.63;3.27;;;13.00;99.90;;;;;;5035329;28;20176;-87
2021/10/31 08:54:37;;;;;;;4.67;3.20;;;13.30;99.90;;;;;;5035294;28;20339;-87
2021/10/31 08:57:04;;;;;;;4.63;3.30;;;13.40;99.90;;;;;;5036326;28;20400;-83
2021/10/31 08:59:31;;;;;;;5.37;3.30;;;13.40;99.90;;;;;;5035847;28;20443;-88
2021/10/31 09:01:56;;;;;;;4.73;3.30;;;13.50;99.90;;;;;;5035145;28;20411;-86
2021/10/31 09:04:22;;;;;;;4.77;3.17;;;13.60;99.90;;;;;;5036342;28;20411;-84
2021/10/31 09:06:47;;;;;;;4.43;2.40;;;13.80;99.90;;;;;;5035751;28;20186;-86
2021/10/31 09:09:13;;;;;;;3.80;3.00;;;14.00;99.90;;;;;;5033289;28;20200;-85
2021/10/31 09:11:39;;;;;;;5.10;3.00;;;14.10;99.90;;;;;;5033203;28;20555;-87
2021/10/31 09:14:04;;;;;;;3.77;2.47;;;14.20;99.90;;;;;;5033163;28;20288;-85
2021/10/31 09:16:31;;;;;;;5.00;2.73;;;14.40;99.90;;;;;;5034748;28;20519;-84
2021/10/31 09:18:56;;;;;;;5.50;2.93;;;14.60;99.90;;;;;;5032630;28;20188;-86
2021/10/31 09:21:24;;;;;;;3.80;2.70;;;14.80;99.90;;;;;;5034017;28;20500;-84
2021/10/31 09:23:50;;;;;;;3.80;2.97;;;14.90;99.90;;;;;;5034591;28;20173;-84
2021/10/31 09:26:16;;;;;;;3.90;3.00;;;14.90;99.90;;;;;;5033380;28;20496;-85
2021/10/31 09:28:42;;;;;;;3.90;3.23;;;14.90;99.90;;;;;;5036409;28;20187;-84
2021/10/31 09:31:08;;;;;;;4.90;3.50;;;14.80;99.90;;;;;;5034144;28;20431;-85
2021/10/31 09:33:35;;;;;;;4.33;3.50;;;14.90;99.90;;;;;;5038846;28;20192;-86
2021/10/31 09:36:01;;;;;;;4.93;3.70;;;14.80;99.90;;;;;;5036469;28;20431;-84
2021/10/31 09:38:29;;;;;;;5.30;3.70;;;14.80;99.90;;;;;;5028476;28;20488;-86
2021/10/31 09:40:55;;;;;;;7.63;4.30;;;14.80;99.90;;;;;;5014893;28;20247;-86
2021/10/31 09:43:24;;;;;;;5.53;4.13;;;14.80;99.90;;;;;;5013099;28;20442;-85
2021/10/31 09:45:50;;;;;;;7.70;4.50;;;14.90;99.90;;;;;;5013964;28;20416;-86
2021/10/31 09:48:16;;;;;;;6.47;4.27;;;15.00;99.90;;;;;;5013121;28;20950;-85
2021/10/31 09:50:48;;;;;;;5.80;4.03;;;15.10;99.90;;;;;;5013878;28;20200;-86
2021/10/31 09:53:20;;;;;;;6.47;4.20;;;15.50;99.90;;;;;;5014026;28;20918;-86
2021/10/31 09:55:47;;;;;;;6.17;4.17;;;15.80;99.90;;;;;;5014980;28;20420;-85
2021/10/31 09:58:25;;;;;;;7.73;4.50;;;16.10;99.90;;;;;;5014572;28;20428;-85
2021/10/31 10:00:59;;;;;;;6.60;4.40;;;16.50;99.90;;;;;;5014710;28;20468;-86
2021/10/31 10:03:35;;;;;;;5.63;3.90;;;16.70;99.90;;;;;;5013616;28;20495;-84
2021/10/31 10:06:10;;;;;;;5.37;3.93;;;16.90;99.90;;;;;;5014290;28;20434;-82
2021/10/31 10:08:36;;;;;;;6.63;4.40;;;16.80;99.90;;;;;;5015535;28;20408;-85
2021/10/31 10:11:02;;;;;;;6.67;3.97;;;16.90;99.90;;;;;;5014172;28;20454;-87
2021/10/31 10:13:30;;;;;;;5.00;3.77;;;16.80;99.90;;;;;;5013845;28;20601;-85
2021/10/31 10:16:27;;;;;;;5.60;4.33;;;16.80;99.90;;;;;;5014110;28;20452;-85
2021/10/31 10:18:53;;;;;;;6.23;4.10;;;16.60;99.90;;;;;;5014766;28;20979;-85
2021/10/31 10:21:23;;;;;;;9.27;4.67;;;16.60;99.90;;;;;;5015916;28;20503;-85
2021/10/31 10:23:56;;;;;;;6.87;4.57;;;16.60;99.90;;;;;;5013567;28;20789;-84
2021/10/31 10:26:42;;;;;;;5.30;4.40;;;16.80;99.90;;;;;;5011200;28;20522;-85
2021/10/31 10:29:44;;;;;;;5.73;4.33;;;16.80;99.90;;;;;;5010937;28;20529;-84
2021/10/31 10:32:15;;;;;;;8.20;4.00;;;16.90;99.90;;;;;;4935555;29;20426;-85
2021/10/31 10:34:53;;;;;;;4.37;3.37;;;17.00;99.90;;;;;;5007515;28;20558;-85
2021/10/31 10:37:22;;;;;;;5.97;5.30;;;17.00;99.90;;;;;;5016834;28;20423;-86
2021/10/31 10:39:54;;;;;;;5.67;4.23;;;16.90;99.90;;;;;;5017096;28;20440;-85
2021/10/31 10:42:43;;;;;;;5.33;4.13;;;16.90;99.90;;;;;;5016709;28;20570;-86
2021/10/31 10:45:15;;;;;;;5.80;4.47;;;17.00;99.90;;;;;;5017191;28;20480;-86
2021/10/31 10:47:47;;;;;;;4.90;4.00;;;17.10;99.90;;;;;;5019057;28;20423;-86
2021/10/31 10:50:19;;;;;;;9.10;4.17;;;17.50;99.90;;;;;;5018132;28;20450;-86
2021/10/31 10:52:45;;;;;;;6.97;4.50;;;17.70;99.90;;;;;;5016801;28;20510;-85
2021/10/31 10:55:15;;;;;;;5.63;3.77;;;18.10;99.90;;;;;;5016983;28;20855;-86
2021/10/31 10:57:49;;;;;;;5.53;4.03;;;18.90;99.90;;;;;;5018434;28;20422;-84
2021/10/31 11:00:27;;;;;;;4.57;4.07;;;19.80;99.90;;;;;;5015552;28;20997;-84
2021/10/31 11:02:59;;;;;;;6.23;4.50;;;19.80;99.90;;;;;;5019260;28;20451;-85
2021/10/31 11:05:28;;;;;;;4.50;3.40;;;19.70;99.90;;;;;;5020154;28;20464;-86
2021/10/31 11:07:53;;;;;;;5.60;3.70;;;19.40;99.90;;;;;;5019968;28;20931;-86
2021/10/31 11:10:22;;;;;;;4.87;3.90;;;19.80;99.90;;;;;;5022059;28;20431;-86
2021/10/31 11:12:51;;;;;;;3.60;2.60;;;21.20;99.90;;;;;;5021774;28;20184;-86
2021/10/31 11:15:23;;;;;;;4.70;3.30;;;21.80;99.90;;;;;;5019544;28;20784;-85
2021/10/31 11:17:55;;;;;;;5.93;3.17;;;21.90;99.90;;;;;;5021878;28;20400;-86
2021/10/31 11:20:24;;;;;;;4.50;3.30;;;21.50;99.90;;;;;;5019801;28;20471;-84
2021/10/31 11:22:54;;;;;;;4.70;3.50;;;21.20;99.90;;;;;;5019367;28;20416;-85
2021/10/31 11:25:23;;;;;;;5.03;3.47;;;21.20;99.90;;;;;;5019841;28;20412;-85
2021/10/31 11:27:49;;;;;;;4.60;3.43;;;21.10;99.90;;;;;;5019406;28;20415;-85
2021/10/31 11:30:17;;;;;;;5.00;3.27;;;21.50;99.90;;;;;;5020986;28;20458;-85
2021/10/31 11:32:44;;;;;;;5.00;3.30;;;21.60;99.90;;;;;;5017863;28;20434;-86
2021/10/31 11:35:12;;;;;;;5.87;4.50;;;21.40;99.90;;;;;;5015268;28;20515;-84
2021/10/31 11:37:55;;;;;;;3.87;3.20;;;21.10;99.90;;;;;;5014388;28;20805;-83
2021/10/31 11:40:35;;;;;;;4.80;4.07;;;20.30;99.90;;;;;;5014335;28;20467;-85
2021/10/31 11:43:04;;;;;;;5.17;3.30;;;19.80;99.90;;;;;;5016295;28;20397;-84
2021/10/31 11:45:35;;;;;;;3.67;2.83;;;19.60;99.90;;;;;;5016875;28;20423;-84
2021/10/31 11:48:25;;;;;;;4.20;3.30;;;19.40;99.90;;;;;;5015150;28;20419;-85
2021/10/31 11:51:03;;;;;;;4.70;3.27;;;19.30;99.90;;;;;;5016340;28;20812;-84
2021/10/31 11:53:32;;;;;;;4.30;3.70;;;19.20;99.90;;;;;;5014565;28;20428;-85
2021/10/31 11:56:02;;;;;;;7.33;3.93;;;19.10;99.90;;;;;;5015761;28;20830;-85
2021/10/31 11:58:38;;;;;;;4.70;3.50;;;18.90;99.90;;;;;;5016469;28;20447;-84
2021/10/31 12:01:18;;;;;;;5.80;4.10;;;18.80;99.90;;;;;;5016161;28;21042;-85
2021/10/31 12:03:55;;;;;;;6.07;3.97;;;18.70;99.90;;;;;;5015806;28;20430;-85
2021/10/31 12:06:25;;;;;;;4.83;3.40;;;18.60;99.90;;;;;;5016020;28;20455;-84
2021/10/31 12:08:58;;;;;;;4.90;3.30;;;18.50;99.90;;;;;;5014844;28;20470;-84
2021/10/31 12:11:33;;;;;;;5.07;3.83;;;18.50;99.90;;;;;;5016568;28;20416;-86
2021/10/31 12:14:06;;;;;;;4.13;3.23;;;18.40;99.90;;;;;;5016075;28;20924;-84
2021/10/31 12:16:55;;;;;;;4.17;3.13;;;18.40;99.90;;;;;;5016305;28;20412;-86
2021/10/31 12:19:36;;;;;;;4.60;3.47;;;18.20;99.90;;;;;;5015396;28;20544;-83
2021/10/31 12:22:18;;;;;;;5.63;3.20;;;18.20;99.90;;;;;;5015230;28;20490;-85
2021/10/31 12:24:47;;;;;;;4.73;4.03;;;18.30;99.90;;;;;;5016345;28;20416;-86
2021/10/31 12:27:15;;;;;;;6.33;3.50;;;18.10;99.90;;;;;;5016715;28;20416;-83
2021/10/31 12:29:46;;;;;;;4.30;2.93;;;18.00;99.90;;;;;;5028053;28;20428;-84
2021/10/31 12:32:17;;;;;;;3.97;3.57;;;18.00;99.90;;;;;;5030055;28;20466;-82
2021/10/31 12:34:53;;;;;;;4.27;3.20;;;18.00;99.90;;;;;;5026633;28;20422;-85
2021/10/31 12:37:19;;;;;;;5.10;3.60;;;17.90;99.90;;;;;;5025949;28;20469;-85
2021/10/31 12:39:44;;;;;;;4.33;3.13;;;17.90;99.90;;;;;;5013962;28;20431;-82
2021/10/31 12:42:11;;;;;;;3.93;3.10;;;17.90;99.90;;;;;;5012756;28;20181;-82
2021/10/31 12:44:37;;;;;;;3.80;3.00;;;17.90;99.90;;;;;;5012528;28;20304;-82
2021/10/31 12:47:08;;;;;;;4.33;3.67;;;17.90;99.90;;;;;;5014695;28;20934;-82
2021/10/31 12:49:33;;;;;;;5.13;3.40;;;17.90;99.90;;;;;;5024789;28;20500;-87
2021/10/31 12:52:02;;;;;;;5.93;3.57;;;17.90;99.90;;;;;;5028044;28;20430;-83
2021/10/31 12:54:37;;;;;;;5.90;2.80;;;17.90;99.90;;;;;;5028777;28;20177;-88
2021/10/31 12:57:11;;;;;;;3.27;2.43;;;17.90;99.90;;;;;;5029261;28;20510;-85